createdAt,value
2022-11-18T00:01:23.424Z,3.70
2022-11-18T00:03:53.056Z,4.03
2022-11-18T00:06:23.110Z,3.57
2022-11-18T00:08:51.316Z,4.07
2022-11-18T00:11:36.592Z,4.60
2022-11-18T00:14:20.623Z,4.10
2022-11-18T00:16:51.287Z,4.00
2022-11-18T00:19:20.374Z,3.43
2022-11-18T00:21:48.554Z,3.43
2022-11-18T00:24:16.644Z,4.00
2022-11-18T00:26:46.213Z,5.10
2022-11-18T00:29:14.769Z,4.37
2022-11-18T00:31:43.306Z,4.93
2022-11-18T00:34:13.987Z,4.50
2022-11-18T00:36:42.259Z,4.23
2022-11-18T00:39:11.827Z,4.37
2022-11-18T00:41:57.254Z,4.00
2022-11-18T00:44:26.759Z,4.23
2022-11-18T00:46:55.219Z,4.43
2022-11-18T00:49:23.557Z,5.27
2022-11-18T00:51:52.762Z,4.60
2022-11-18T00:54:20.937Z,4.20
2022-11-18T00:56:49.053Z,4.40
2022-11-18T00:59:17.531Z,4.40
2022-11-18T01:01:47.346Z,3.40
2022-11-18T01:04:15.612Z,4.07
2022-11-18T01:06:43.788Z,4.07
2022-11-18T01:09:13.023Z,4.03
2022-11-18T01:11:58.487Z,4.37
2022-11-18T01:14:27.494Z,3.50
2022-11-18T01:16:57.885Z,4.20
2022-11-18T01:19:26.702Z,3.77
2022-11-18T01:21:56.535Z,3.73
2022-11-18T01:24:24.605Z,3.90
2022-11-18T01:26:52.701Z,3.80
2022-11-18T01:29:20.919Z,4.10
2022-11-18T01:32:17.421Z,4.20
2022-11-18T01:34:38.633Z,3.47
2022-11-18T01:37:06.769Z,3.53
2022-11-18T01:39:35.042Z,3.27
2022-11-18T01:42:03.174Z,3.13
2022-11-18T01:45:05.232Z,2.90
2022-11-18T01:47:37.099Z,2.90
2022-11-18T01:50:08.213Z,2.83
2022-11-18T01:52:37.158Z,2.43
2022-11-18T01:55:11.668Z,2.70
2022-11-18T01:57:40.637Z,3.00
2022-11-18T02:00:09.753Z,3.00
2022-11-18T02:02:39.149Z,3.00
2022-11-18T02:05:11.768Z,2.60
2022-11-18T02:07:43.015Z,2.50
2022-11-18T02:10:19.699Z,2.70
2022-11-18T02:12:48.083Z,2.73
2022-11-18T02:15:17.641Z,2.60
2022-11-18T02:17:55.763Z,2.20
2022-11-18T02:20:43.466Z,2.60
2022-11-18T02:23:52.810Z,2.77
2022-11-18T02:26:50.394Z,2.67
2022-11-18T02:29:22.615Z,3.10
2022-11-18T02:31:56.697Z,2.63
2022-11-18T02:34:38.181Z,2.77
2022-11-18T02:37:14.170Z,2.73
2022-11-18T02:39:50.044Z,2.43
2022-11-18T02:42:19.245Z,4.07
2022-11-18T02:44:54.041Z,3.17
2022-11-18T02:47:23.454Z,3.00
2022-11-18T02:49:56.773Z,2.90
2022-11-18T02:52:27.169Z,2.50
2022-11-18T02:54:56.940Z,2.97
2022-11-18T02:57:26.971Z,3.80
2022-11-18T02:59:56.479Z,3.50
2022-11-18T03:02:24.860Z,2.87
2022-11-18T03:04:56.208Z,3.50
2022-11-18T03:07:29.270Z,3.60
2022-11-18T03:09:59.806Z,3.30
2022-11-18T03:12:38.138Z,3.80
2022-11-18T03:15:20.052Z,3.30
2022-11-18T03:17:56.973Z,3.20
2022-11-18T03:20:29.952Z,3.80
2022-11-18T03:23:05.930Z,3.30
2022-11-18T03:25:39.118Z,3.00
2022-11-18T03:28:14.181Z,3.00
2022-11-18T03:30:48.915Z,2.83
2022-11-18T03:33:22.848Z,2.87
2022-11-18T03:35:53.842Z,2.67
2022-11-18T03:38:28.013Z,2.43
2022-11-18T03:40:59.829Z,2.80
2022-11-18T03:43:33.269Z,2.87
2022-11-18T03:46:08.396Z,3.07
2022-11-18T03:48:42.880Z,2.83
2022-11-18T03:51:15.989Z,3.20
2022-11-18T03:53:49.884Z,2.87
2022-11-18T03:56:23.892Z,3.27
2022-11-18T03:58:58.516Z,2.83
2022-11-18T04:01:34.895Z,3.10
2022-11-18T04:04:03.337Z,3.30
2022-11-18T04:06:38.758Z,3.93
2022-11-18T04:09:13.020Z,4.30
2022-11-18T04:12:04.625Z,4.33
2022-11-18T04:14:34.797Z,4.00
2022-11-18T04:17:09.010Z,4.50
2022-11-18T04:19:37.345Z,3.57
2022-11-18T04:22:05.642Z,3.90
2022-11-18T04:24:34.005Z,4.40
2022-11-18T04:27:02.702Z,4.70
2022-11-18T04:29:30.905Z,4.10
2022-11-18T04:31:59.103Z,4.60
2022-11-18T04:34:29.122Z,4.43
2022-11-18T04:36:57.287Z,4.47
2022-11-18T04:39:25.543Z,4.50
2022-11-18T04:41:59.464Z,4.60
2022-11-18T04:44:30.101Z,4.77
2022-11-18T04:47:01.025Z,4.07
2022-11-18T04:49:31.048Z,4.23
2022-11-18T04:51:59.497Z,4.80
2022-11-18T04:54:28.814Z,4.20
2022-11-18T04:56:57.361Z,4.10
2022-11-18T04:59:26.701Z,4.10
2022-11-18T05:01:56.025Z,5.10
2022-11-18T05:04:26.347Z,5.10
2022-11-18T05:06:55.866Z,5.40
2022-11-18T05:09:30.242Z,5.17
2022-11-18T05:12:17.098Z,4.83
2022-11-18T05:14:49.641Z,5.23
2022-11-18T05:17:19.442Z,4.33
2022-11-18T05:19:47.763Z,4.17
2022-11-18T05:22:17.297Z,4.20
2022-11-18T05:24:45.425Z,3.97
2022-11-18T05:27:13.985Z,4.43
2022-11-18T05:29:42.179Z,3.73
2022-11-18T05:32:10.565Z,3.90
2022-11-18T05:34:39.054Z,3.80
2022-11-18T05:37:07.140Z,4.33
2022-11-18T05:39:36.749Z,5.23
2022-11-18T05:42:22.368Z,4.40
2022-11-18T05:44:57.526Z,4.67
2022-11-18T05:47:26.723Z,4.27
2022-11-18T05:49:54.936Z,4.90
2022-11-18T05:52:23.027Z,3.90
2022-11-18T05:54:52.863Z,4.20
2022-11-18T05:57:20.945Z,3.70
2022-11-18T05:59:49.080Z,4.73
2022-11-18T06:02:20.988Z,4.87
2022-11-18T06:04:51.705Z,4.07
2022-11-18T06:07:23.105Z,4.40
2022-11-18T06:10:02.090Z,4.47
2022-11-18T06:12:37.300Z,3.70
2022-11-18T06:15:11.506Z,3.60
2022-11-18T06:17:43.156Z,3.80
2022-11-18T06:20:12.118Z,4.10
2022-11-18T06:22:46.145Z,4.30
2022-11-18T06:25:16.733Z,5.40
2022-11-18T06:27:45.511Z,5.03
2022-11-18T06:30:15.029Z,6.27
2022-11-18T06:32:43.336Z,8.07
2022-11-18T06:35:12.010Z,5.63
2022-11-18T06:37:40.093Z,5.60
2022-11-18T06:40:09.756Z,4.00
2022-11-18T06:42:56.725Z,3.60
2022-11-18T06:45:24.937Z,4.50
2022-11-18T06:47:52.033Z,4.37
2022-11-18T06:50:20.366Z,4.60
2022-11-18T06:52:48.469Z,4.60
2022-11-18T06:55:16.794Z,4.40
2022-11-18T06:57:47.257Z,5.10
2022-11-18T07:00:16.961Z,3.93
2022-11-18T07:02:45.077Z,5.20
2022-11-18T07:05:13.216Z,4.80
2022-11-18T07:07:42.456Z,4.53
2022-11-18T07:10:11.454Z,5.30
2022-11-18T07:12:39.605Z,6.80
2022-11-18T07:15:10.237Z,5.33
2022-11-18T07:17:38.289Z,5.10
2022-11-18T07:20:07.193Z,5.00
2022-11-18T07:22:35.280Z,9.00
2022-11-18T07:25:03.446Z,7.30
2022-11-18T07:27:31.515Z,7.43
2022-11-18T07:29:59.684Z,5.20
2022-11-18T07:32:29.145Z,5.73
2022-11-18T07:34:57.246Z,7.13
2022-11-18T07:37:25.394Z,5.93
2022-11-18T07:39:53.475Z,6.10
2022-11-18T07:42:21.535Z,6.60
2022-11-18T07:44:49.612Z,6.40
2022-11-18T07:47:17.731Z,7.60
2022-11-18T07:49:48.269Z,5.90
2022-11-18T07:52:16.477Z,6.93
2022-11-18T07:54:44.513Z,6.63
2022-11-18T07:57:12.557Z,7.07
2022-11-18T07:59:40.774Z,6.70
2022-11-18T08:02:12.245Z,6.80
2022-11-18T08:04:40.725Z,11.50
2022-11-18T08:07:12.064Z,12.97
2022-11-18T08:09:40.178Z,7.80
2022-11-18T08:12:08.565Z,7.30
2022-11-18T08:14:36.668Z,6.43
2022-11-18T08:17:04.796Z,7.20
2022-11-18T08:19:35.440Z,7.03
2022-11-18T08:22:03.530Z,6.13
2022-11-18T08:24:33.108Z,6.50
2022-11-18T08:27:01.229Z,9.10
2022-11-18T08:29:29.520Z,5.93
2022-11-18T08:31:57.973Z,5.90
2022-11-18T08:34:26.156Z,5.70
2022-11-18T08:36:54.269Z,6.00
2022-11-18T08:39:22.429Z,6.10
2022-11-18T08:41:51.934Z,6.03
2022-11-18T08:44:20.050Z,9.60
2022-11-18T08:46:48.237Z,8.27
2022-11-18T08:49:17.017Z,6.77
2022-11-18T08:51:45.433Z,6.17
2022-11-18T08:54:13.520Z,7.10
2022-11-18T08:56:41.960Z,6.80
2022-11-18T08:59:12.583Z,7.20
2022-11-18T09:01:42.079Z,6.80
2022-11-18T09:04:10.416Z,7.07
2022-11-18T09:06:40.400Z,6.63
2022-11-18T09:09:09.111Z,7.40
2022-11-18T09:11:39.744Z,7.37
2022-11-18T09:16:57.802Z,6.60
2022-11-18T09:22:14.317Z,7.00
2022-11-18T09:24:43.610Z,7.40
2022-11-18T09:27:16.709Z,7.00
2022-11-18T09:29:45.281Z,7.33
2022-11-18T09:32:14.978Z,6.60
2022-11-18T09:34:43.052Z,7.60
2022-11-18T09:37:11.323Z,6.83
2022-11-18T09:39:39.458Z,7.50
2022-11-18T09:42:22.280Z,6.90
2022-11-18T09:45:08.625Z,6.00
2022-11-18T09:47:41.417Z,6.90
2022-11-18T09:50:47.928Z,7.20
2022-11-18T09:53:12.281Z,7.27
2022-11-18T09:55:42.273Z,7.13
2022-11-18T09:58:18.354Z,6.80
2022-11-18T10:00:46.872Z,7.43
2022-11-18T10:03:23.842Z,7.37
2022-11-18T10:05:57.170Z,7.90
2022-11-18T10:08:29.849Z,7.13
2022-11-18T10:11:07.994Z,7.83
2022-11-18T10:13:53.221Z,8.53
2022-11-18T10:16:42.192Z,7.00
2022-11-18T10:19:25.701Z,8.13
2022-11-18T10:22:13.845Z,8.60
2022-11-18T10:24:50.538Z,8.73
2022-11-18T10:27:19.419Z,9.27
2022-11-18T10:29:54.327Z,8.93
2022-11-18T10:32:22.957Z,9.40
2022-11-18T10:34:54.077Z,8.77
2022-11-18T10:37:45.770Z,9.17
2022-11-18T10:40:26.032Z,8.47
2022-11-18T10:42:54.181Z,9.10
2022-11-18T10:45:27.601Z,9.13
2022-11-18T10:48:04.296Z,9.30
2022-11-18T10:50:38.530Z,10.40
2022-11-18T10:53:07.754Z,9.47
2022-11-18T10:55:35.995Z,9.10
2022-11-18T10:58:11.527Z,9.03
2022-11-18T11:00:43.480Z,8.60
2022-11-18T11:03:37.203Z,9.33
2022-11-18T11:06:38.032Z,8.90
2022-11-18T11:09:09.597Z,9.00
2022-11-18T11:11:40.525Z,9.30
2022-11-18T11:14:24.836Z,9.40
2022-11-18T11:17:00.117Z,9.60
2022-11-18T11:19:34.352Z,7.80
2022-11-18T11:22:03.862Z,9.73
2022-11-18T11:24:32.150Z,9.37
2022-11-18T11:30:18.000Z,10.03
2022-11-18T11:33:20.131Z,10.00
2022-11-18T11:35:57.449Z,11.27
2022-11-18T11:38:40.692Z,9.40
2022-11-18T11:41:21.060Z,10.23
2022-11-18T11:43:59.965Z,9.50
2022-11-18T11:46:39.253Z,10.30
2022-11-18T11:49:19.179Z,10.73
2022-11-18T11:51:53.458Z,10.30
2022-11-18T11:54:34.740Z,10.13
2022-11-18T11:57:06.458Z,10.00
2022-11-18T11:59:45.210Z,11.63
2022-11-18T12:02:33.744Z,9.87
2022-11-18T12:05:09.645Z,10.83
2022-11-18T12:07:43.679Z,11.70
2022-11-18T12:10:33.745Z,11.13
2022-11-18T12:13:18.499Z,11.23
2022-11-18T12:16:02.435Z,10.57
2022-11-18T12:18:38.722Z,11.50
2022-11-18T12:21:06.927Z,11.03
2022-11-18T12:23:35.620Z,10.30
2022-11-18T12:26:07.351Z,11.00
2022-11-18T12:28:41.432Z,12.40
2022-11-18T12:31:35.694Z,12.53
2022-11-18T12:34:20.286Z,12.67
2022-11-18T12:36:49.054Z,11.73
2022-11-18T12:39:49.063Z,10.80
2022-11-18T12:42:57.697Z,12.70
2022-11-18T12:46:01.935Z,11.03
2022-11-18T12:48:35.748Z,9.77
2022-11-18T12:51:12.356Z,11.10
2022-11-18T12:53:42.498Z,10.60
2022-11-18T12:56:23.804Z,10.60
2022-11-18T12:58:55.990Z,11.20
2022-11-18T13:01:26.848Z,12.83
2022-11-18T13:04:08.580Z,13.70
2022-11-18T13:06:39.195Z,14.77
2022-11-18T13:09:17.085Z,17.07
2022-11-18T13:11:51.689Z,15.00
2022-11-18T13:14:44.163Z,16.33
2022-11-18T13:17:49.504Z,16.97
2022-11-18T13:20:31.037Z,18.40
2022-11-18T13:23:19.661Z,18.60
2022-11-18T13:25:50.194Z,20.53
2022-11-18T13:28:30.341Z,20.47
2022-11-18T13:31:06.601Z,19.20
2022-11-18T13:33:37.505Z,21.03
2022-11-18T13:36:19.000Z,20.17
2022-11-18T13:38:57.470Z,18.83
2022-11-18T13:41:32.773Z,20.10
2022-11-18T13:44:18.671Z,20.30
2022-11-18T13:46:52.587Z,18.90
2022-11-18T13:49:25.409Z,21.13
2022-11-18T13:51:53.828Z,19.90
2022-11-18T13:54:25.976Z,22.90
2022-11-18T13:56:54.768Z,23.30
2022-11-18T13:59:25.457Z,24.60
2022-11-18T14:01:57.554Z,23.87
2022-11-18T14:04:28.506Z,24.63
2022-11-18T14:07:25.568Z,21.67
2022-11-18T14:09:56.189Z,26.77
2022-11-18T14:12:28.830Z,25.70
2022-11-18T14:15:20.670Z,24.27
2022-11-18T14:17:59.632Z,26.17
2022-11-18T14:20:29.377Z,24.50
2022-11-18T14:22:59.469Z,24.60
2022-11-18T14:25:31.210Z,23.87
2022-11-18T14:28:10.460Z,22.27
2022-11-18T14:30:39.904Z,23.20
2022-11-18T14:33:14.806Z,24.53
2022-11-18T14:35:44.811Z,26.77
2022-11-18T14:38:36.681Z,24.93
2022-11-18T14:41:04.907Z,21.70
2022-11-18T14:43:33.062Z,24.20
2022-11-18T14:46:03.531Z,36.00
2022-11-18T14:48:33.438Z,25.67
2022-11-18T14:51:02.020Z,23.33
2022-11-18T14:53:30.089Z,25.20
2022-11-18T14:56:00.673Z,25.10
2022-11-18T14:58:28.791Z,26.07
2022-11-18T15:00:57.035Z,24.60
2022-11-18T15:03:25.248Z,27.83
2022-11-18T15:05:54.726Z,25.73
2022-11-18T15:08:22.917Z,24.27
2022-11-18T15:10:51.086Z,27.00
2022-11-18T15:13:19.208Z,28.13
2022-11-18T15:15:47.548Z,32.77
2022-11-18T15:18:15.601Z,38.17
2022-11-18T15:20:43.774Z,35.57
2022-11-18T15:23:13.295Z,26.87
2022-11-18T15:25:41.375Z,25.87
2022-11-18T15:28:11.309Z,26.97
2022-11-18T15:30:39.564Z,26.30
2022-11-18T15:33:07.716Z,26.00
2022-11-18T15:35:38.665Z,27.13
2022-11-18T15:38:06.831Z,32.40
2022-11-18T15:40:36.916Z,36.20
2022-11-18T15:43:05.091Z,38.63
2022-11-18T15:45:33.150Z,32.87
2022-11-18T15:48:01.315Z,31.33
2022-11-18T15:50:29.557Z,33.60
2022-11-18T15:52:58.353Z,32.30
2022-11-18T15:55:26.422Z,35.37
2022-11-18T15:57:55.906Z,35.23
2022-11-18T16:00:24.185Z,35.00
2022-11-18T16:02:52.375Z,31.50
2022-11-18T16:05:20.416Z,31.40
2022-11-18T16:07:54.329Z,34.73
2022-11-18T16:10:42.800Z,32.87
2022-11-18T16:13:12.312Z,29.07
2022-11-18T16:15:49.430Z,31.63
2022-11-18T16:18:19.628Z,29.00
2022-11-18T16:20:47.840Z,27.80
2022-11-18T16:23:15.944Z,27.53
2022-11-18T16:25:47.949Z,22.43
2022-11-18T16:28:17.493Z,24.00
2022-11-18T16:31:06.966Z,23.47
2022-11-18T16:33:35.122Z,19.93
2022-11-18T16:36:03.386Z,20.97
2022-11-18T16:38:31.525Z,19.43
2022-11-18T16:41:00.500Z,22.07
2022-11-18T16:43:29.985Z,22.00
2022-11-18T16:45:58.089Z,22.60
2022-11-18T16:48:26.160Z,24.03
2022-11-18T16:51:19.311Z,27.20
2022-11-18T16:53:51.973Z,27.13
2022-11-18T16:56:20.457Z,24.30
2022-11-18T16:58:50.408Z,25.27
2022-11-18T17:01:23.319Z,23.10
2022-11-18T17:03:55.327Z,26.80
2022-11-18T17:06:24.695Z,28.33
2022-11-18T17:08:53.003Z,26.07
2022-11-18T17:11:21.288Z,21.63
2022-11-18T17:13:56.337Z,21.90
2022-11-18T17:16:26.147Z,22.20
2022-11-18T17:18:58.665Z,22.33
2022-11-18T17:21:28.215Z,20.47
2022-11-18T17:23:56.799Z,21.67
2022-11-18T17:26:26.762Z,21.60
2022-11-18T17:28:57.821Z,19.03
2022-11-18T17:31:26.738Z,22.13
2022-11-18T17:33:56.442Z,23.20
2022-11-18T17:36:26.403Z,24.10
2022-11-18T17:38:59.615Z,22.47
2022-11-18T17:41:46.792Z,21.37
2022-11-18T17:44:18.681Z,19.20
2022-11-18T17:46:48.106Z,19.97
2022-11-18T17:49:18.252Z,20.00
2022-11-18T17:51:47.176Z,19.87
2022-11-18T17:54:15.559Z,18.53
2022-11-18T17:56:44.056Z,19.57
2022-11-18T17:59:14.588Z,20.53
2022-11-18T18:01:44.526Z,18.50
2022-11-18T18:04:14.634Z,17.77
2022-11-18T18:06:42.830Z,27.00
2022-11-18T18:09:10.964Z,20.20
2022-11-18T18:11:39.195Z,16.30
2022-11-18T18:14:12.899Z,14.63
2022-11-18T18:16:45.426Z,14.60
2022-11-18T18:19:16.606Z,15.40
2022-11-18T18:21:45.512Z,15.97
2022-11-18T18:24:14.794Z,15.90
2022-11-18T18:26:42.998Z,16.07
2022-11-18T18:29:12.393Z,15.47
2022-11-18T18:31:40.474Z,15.63
2022-11-18T18:34:09.999Z,13.47
2022-11-18T18:36:38.120Z,14.50
2022-11-18T18:39:06.454Z,13.63
2022-11-18T18:41:34.866Z,13.00
2022-11-18T18:44:02.967Z,13.13
2022-11-18T18:46:34.202Z,11.10
2022-11-18T18:49:05.656Z,13.20
2022-11-18T18:51:38.089Z,12.00
2022-11-18T18:54:07.362Z,12.73
2022-11-18T18:56:35.510Z,10.80
2022-11-18T18:59:03.645Z,11.70
2022-11-18T19:01:31.910Z,11.77
2022-11-18T19:04:01.677Z,12.03
2022-11-18T19:09:21.906Z,12.03
2022-11-18T19:12:10.111Z,14.27
2022-11-18T19:14:38.329Z,11.90
2022-11-18T19:20:19.382Z,13.30
2022-11-18T19:22:47.516Z,12.50
2022-11-18T19:25:19.381Z,15.70
2022-11-18T19:27:47.482Z,14.20
2022-11-18T19:30:16.071Z,15.23
2022-11-18T19:32:44.209Z,12.43
2022-11-18T19:35:13.041Z,14.70
2022-11-18T19:37:41.123Z,13.70
2022-11-18T19:40:11.202Z,12.63
2022-11-18T19:42:42.356Z,12.77
2022-11-18T19:45:12.507Z,12.73
2022-11-18T19:47:40.781Z,12.70
2022-11-18T19:50:09.714Z,10.50
2022-11-18T19:52:37.982Z,10.57
2022-11-18T19:55:08.067Z,10.40
2022-11-18T19:57:36.227Z,8.67
2022-11-18T20:00:08.157Z,9.10
2022-11-18T20:02:36.200Z,9.60
2022-11-18T20:05:22.142Z,8.70
2022-11-18T20:07:50.193Z,8.83
2022-11-18T20:10:18.780Z,7.47
2022-11-18T20:12:46.893Z,7.80
2022-11-18T20:15:16.455Z,6.37
2022-11-18T20:17:44.565Z,7.47
2022-11-18T20:20:13.032Z,6.83
2022-11-18T20:22:41.280Z,6.63
2022-11-18T20:25:10.398Z,6.77
2022-11-18T20:27:38.442Z,15.27
2022-11-18T20:30:08.041Z,8.30
2022-11-18T20:32:37.518Z,6.83
2022-11-18T20:35:06.395Z,10.27
2022-11-18T20:37:34.550Z,6.60
2022-11-18T20:40:02.668Z,5.90
2022-11-18T20:42:48.688Z,7.43
2022-11-18T20:45:16.864Z,6.20
2022-11-18T20:47:46.279Z,6.83
2022-11-18T20:50:14.498Z,6.20
2022-11-18T20:52:42.522Z,7.60
2022-11-18T20:55:11.623Z,6.10
2022-11-18T20:57:39.657Z,6.13
2022-11-18T21:00:09.230Z,6.57
2022-11-18T21:02:37.323Z,5.90
2022-11-18T21:05:07.701Z,8.47
2022-11-18T21:07:36.032Z,5.63
2022-11-18T21:10:04.213Z,6.80
2022-11-18T21:12:32.326Z,6.10
2022-11-18T21:14:59.397Z,6.90
2022-11-18T21:17:27.456Z,6.00
2022-11-18T21:19:55.650Z,6.53
2022-11-18T21:22:24.322Z,5.37
2022-11-18T21:24:52.361Z,5.60
2022-11-18T21:27:20.488Z,6.33
2022-11-18T21:29:50.020Z,6.93
2022-11-18T21:32:18.070Z,5.60
2022-11-18T21:34:46.162Z,5.40
2022-11-18T21:37:14.305Z,6.63
2022-11-18T21:39:43.764Z,6.40
2022-11-18T21:42:11.873Z,5.63
2022-11-18T21:44:39.988Z,6.13
2022-11-18T21:47:08.153Z,6.13
2022-11-18T21:49:36.221Z,5.93
2022-11-18T21:52:04.375Z,6.70
2022-11-18T21:54:35.048Z,6.27
2022-11-18T21:57:04.578Z,6.30
2022-11-18T21:59:32.665Z,6.70
2022-11-18T22:02:00.805Z,6.23
2022-11-18T22:04:57.704Z,6.30
2022-11-18T22:07:27.280Z,6.33
2022-11-18T22:09:55.799Z,7.07
2022-11-18T22:12:25.355Z,5.80
2022-11-18T22:14:53.561Z,6.47
2022-11-18T22:17:21.635Z,7.40
2022-11-18T22:19:49.717Z,6.97
2022-11-18T22:22:18.493Z,5.77
2022-11-18T22:24:46.577Z,6.40
2022-11-18T22:27:14.670Z,5.10
2022-11-18T22:29:44.333Z,5.93
2022-11-18T22:32:12.484Z,6.67
2022-11-18T22:34:40.574Z,7.17
2022-11-18T22:37:08.647Z,5.93
2022-11-18T22:39:36.858Z,7.80
2022-11-18T22:42:22.640Z,6.87
2022-11-18T22:44:52.148Z,6.43
2022-11-18T22:47:21.309Z,6.00
2022-11-18T22:49:53.497Z,6.03
2022-11-18T22:52:24.293Z,8.53
2022-11-18T22:54:52.461Z,5.67
2022-11-18T22:57:21.639Z,5.67
2022-11-18T22:59:51.066Z,6.10
2022-11-18T23:02:19.309Z,6.10
2022-11-18T23:04:47.412Z,5.80
2022-11-18T23:07:15.587Z,6.30
2022-11-18T23:09:43.809Z,6.03
2022-11-18T23:12:29.531Z,5.63
2022-11-18T23:14:59.052Z,5.50
2022-11-18T23:17:27.213Z,6.30
2022-11-18T23:19:55.390Z,5.03
2022-11-18T23:22:23.548Z,6.67
2022-11-18T23:24:51.569Z,6.20
2022-11-18T23:27:19.714Z,5.90
2022-11-18T23:29:47.835Z,6.00
2022-11-18T23:32:17.354Z,6.27
2022-11-18T23:34:45.379Z,5.43
2022-11-18T23:37:13.450Z,5.27
2022-11-18T23:39:41.635Z,5.20
2022-11-18T23:42:09.753Z,5.40
2022-11-18T23:44:46.697Z,5.17
2022-11-18T23:47:15.151Z,5.23
2022-11-18T23:49:44.597Z,5.83
2022-11-18T23:52:12.833Z,5.00
2022-11-18T23:54:41.067Z,5.87
2022-11-18T23:57:09.287Z,4.80
2022-11-18T23:59:37.366Z,4.90
